Terminal Aerodrome Forecast
Issued by NWS Louisville, KY

Home | Current Version | Previous Version | Text Only | Print | Product List | Glossary On
Versions: 1 2 3 4 5 6 7 8 9 10 11 12 13 14 15 16
245
FTUS43 KLMK 242326
TAFLEX
TAF
KLEX 242326Z 2500/2524 15005KT P6SM BKN250
     FM250600 16009KT P6SM SCT045
     FM251100 18010KT P6SM BKN050 WS018/20035KT
     FM251500 20013G23KT P6SM OVC016=

USA.gov is the U.S. government's official web portal to all federal, state and local government web resources and services.